Time;durP1;ratioP1;P1;durP2;ratioP2;P2;SDS_P1;SDS_P2;PMS_P1;PMS_P2;Temp;Humidity;BMP_temperature;BMP_pressure;BME280_temperature;BME280_humidity;BME280_pressure;Samples;Min_cycle;Max_cycle;Signal;HPM_P1;HPM_P2
2023/03/03 00:01:58;;;;;;;4.40;3.60;;;;;;;;;;5012067;28;20410;-39
2023/03/03 00:04:25;;;;;;;4.38;3.60;;;;;;;;;;5011656;28;20522;-34
2023/03/03 00:06:52;;;;;;;4.35;3.33;;;;;;;;;;5012351;28;20046;-37
2023/03/03 00:09:19;;;;;;;4.20;3.53;;;;;;;;;;5012025;28;20077;-37
2023/03/03 00:11:46;;;;;;;7.82;3.72;;;;;;;;;;5012220;28;20053;-35
2023/03/03 00:14:18;;;;;;;4.75;3.67;;;18.90;47.10;;;;;;5011693;28;20050;-34
2023/03/03 00:16:48;;;;;;;4.88;3.67;;;18.80;47.30;;;;;;5012010;28;20054;-34
2023/03/03 00:19:15;;;;;;;5.05;3.85;;;;;;;;;;5011960;28;20434;-36
2023/03/03 00:21:42;;;;;;;4.47;3.58;;;;;;;;;;5012035;28;20056;-35
2023/03/03 00:24:20;;;;;;;4.00;3.60;;;;;;;;;;5011482;28;20057;-37
2023/03/03 00:26:47;;;;;;;4.75;3.90;;;;;;;;;;5011982;28;20045;-37
2023/03/03 00:29:31;;;;;;;4.50;3.50;;;18.70;47.20;;;;;;5011745;28;20075;-35
2023/03/03 00:32:17;;;;;;;4.45;3.80;;;18.60;47.10;;;;;;5012257;28;20133;-36
2023/03/03 00:34:44;;;;;;;5.60;3.30;;;;;;;;;;5015811;28;20065;-35
2023/03/03 00:37:26;;;;;;;4.28;3.85;;;18.50;47.20;;;;;;5015151;28;20052;-38
2023/03/03 00:39:54;;;;;;;4.75;3.42;;;;;;;;;;5015397;28;20069;-38
2023/03/03 00:42:22;;;;;;;4.93;3.80;;;;;;;;;;5015305;28;20046;-39
2023/03/03 00:44:49;;;;;;;4.30;3.65;;;;;;;;;;5015361;28;20104;-39
2023/03/03 00:47:31;;;;;;;4.03;3.45;;;18.30;45.50;;;;;;5015554;28;20050;-37
2023/03/03 00:50:27;;;;;;;4.70;3.67;;;18.40;46.00;;;;;;5015254;28;20054;-34
2023/03/03 00:52:57;;;;;;;4.28;3.67;;;;;;;;;;5015370;28;20137;-36
2023/03/03 00:55:24;;;;;;;4.28;3.53;;;;;;;;;;5015656;28;20053;-35
2023/03/03 00:57:51;;;;;;;4.28;3.65;;;;;;;;;;5015144;28;20133;-37
2023/03/03 01:00:18;;;;;;;4.53;3.53;;;;;;;;;;5015145;28;20050;-38
2023/03/03 01:02:47;;;;;;;4.63;3.55;;;;;;;;;;5014587;28;20525;-37
2023/03/03 01:05:14;;;;;;;4.82;3.78;;;;;;;;;;5015334;28;20104;-36
2023/03/03 01:07:41;;;;;;;4.25;3.35;;;;;;;;;;5015263;28;20137;-35
2023/03/03 01:10:09;;;;;;;4.00;3.35;;;;;;;;;;5015047;28;20057;-37
2023/03/03 01:12:37;;;;;;;4.20;3.38;;;;;;;;;;5014422;28;20064;-39
2023/03/03 01:15:05;;;;;;;5.10;4.05;;;;;;;;;;5014733;28;20053;-35
2023/03/03 01:17:31;;;;;;;4.22;3.50;;;17.90;77.70;;;;;;5014808;28;20052;-39
2023/03/03 01:19:59;;;;;;;3.90;3.25;;;18.10;48.00;;;;;;5015063;28;20048;-35
2023/03/03 01:22:26;;;;;;;4.53;3.53;;;;;;;;;;5014780;28;20418;-37
2023/03/03 01:24:54;;;;;;;3.45;3.10;;;;;;;;;;5014356;28;20487;-34
2023/03/03 01:27:21;;;;;;;4.55;3.42;;;;;;;;;;5014506;28;20400;-37
2023/03/03 01:29:48;;;;;;;4.30;3.45;;;;;;;;;;5014502;28;20495;-36
2023/03/03 01:32:15;;;;;;;4.18;3.50;;;;;;;;;;5014328;28;20050;-36
2023/03/03 01:34:42;;;;;;;4.43;3.83;;;;;;;;;;5014704;28;20050;-34
2023/03/03 01:37:10;;;;;;;3.58;3.08;;;;;;;;;;5014165;28;20053;-35
2023/03/03 01:39:37;;;;;;;4.30;3.45;;;;;;;;;;5014263;28;20049;-37
2023/03/03 01:42:04;;;;;;;4.30;3.50;;;;;;;;;;5014287;28;20048;-33
2023/03/03 01:44:32;;;;;;;4.53;3.70;;;;;;;;;;5013047;28;20045;-37
2023/03/03 01:46:58;;;;;;;4.50;3.20;;;17.50;77.30;;;;;;5014527;28;20056;-38
2023/03/03 01:49:26;;;;;;;3.58;2.90;;;;;;;;;;5014192;28;20121;-38
2023/03/03 01:51:55;;;;;;;4.07;3.15;;;17.80;47.40;;;;;;5014355;28;20060;-36
2023/03/03 01:54:24;;;;;;;3.95;3.10;;;;;;;;;;5013795;28;20430;-37
2023/03/03 01:56:51;;;;;;;4.25;3.50;;;;;;;;;;5013902;28;20053;-37
2023/03/03 01:59:19;;;;;;;3.50;2.90;;;17.60;47.60;;;;;;5014286;28;20050;-35
2023/03/03 02:01:47;;;;;;;3.95;3.08;;;;;;;;;;5013808;28;20414;-33
2023/03/03 02:04:14;;;;;;;4.18;3.15;;;;;;;;;;5013978;28;20056;-37
2023/03/03 02:06:41;;;;;;;4.30;3.20;;;;;;;;;;5014003;28;20054;-35
2023/03/03 02:09:10;;;;;;;3.80;3.13;;;;;;;;;;5014083;28;20062;-36
2023/03/03 02:11:38;;;;;;;3.95;3.08;;;17.60;48.70;;;;;;5013338;28;20418;-34
2023/03/03 02:14:05;;;;;;;4.30;3.22;;;;;;;;;;5013411;28;20133;-34
2023/03/03 02:16:32;;;;;;;4.68;3.30;;;;;;;;;;5013779;28;20046;-36
2023/03/03 02:18:59;;;;;;;3.85;3.28;;;;;;;;;;5013960;28;20049;-34
2023/03/03 02:21:26;;;;;;;3.90;3.20;;;;;;;;;;5013716;28;20049;-39
2023/03/03 02:23:54;;;;;;;4.30;3.35;;;;;;;;;;5013303;28;20050;-35
2023/03/03 02:26:23;;;;;;;4.22;3.25;;;;;;;;;;5013159;28;20064;-35
2023/03/03 02:28:51;;;;;;;3.60;2.90;;;;;;;;;;5013696;28;20064;-34
2023/03/03 02:31:19;;;;;;;4.20;3.05;;;;;;;;;;5013486;28;20076;-35
2023/03/03 02:33:46;;;;;;;4.07;2.95;;;;;;;;;;5013308;28;20054;-36
2023/03/03 02:36:14;;;;;;;3.35;2.88;;;;;;;;;;5012974;28;20060;-34
2023/03/03 02:38:43;;;;;;;4.65;3.35;;;17.30;48.50;;;;;;5013088;28;20045;-34
2023/03/03 02:41:12;;;;;;;4.18;3.25;;;;;;;;;;5013430;28;20050;-34
2023/03/03 02:43:44;;;;;;;3.58;3.00;;;17.40;48.70;;;;;;5013155;28;20079;-36
2023/03/03 02:46:11;;;;;;;4.13;3.00;;;;;;;;;;5013138;28;20060;-34
2023/03/03 02:48:38;;;;;;;3.65;2.78;;;;;;;;;;5013302;28;20507;-33
2023/03/03 02:51:05;;;;;;;4.53;3.20;;;;;;;;;;5012991;28;20052;-34
2023/03/03 02:53:32;;;;;;;3.53;2.75;;;;;;;;;;5012541;28;20404;-36
2023/03/03 02:55:59;;;;;;;4.53;3.30;;;;;;;;;;5012884;28;20053;-35
2023/03/03 02:58:26;;;;;;;3.78;2.97;;;;;;;;;;5013146;28;20050;-32
2023/03/03 03:00:55;;;;;;;3.60;2.90;;;17.30;47.70;;;;;;5013031;28;20048;-35
2023/03/03 03:03:22;;;;;;;3.75;3.00;;;;;;;;;;5012756;28;20057;-34
2023/03/03 03:05:49;;;;;;;3.45;2.90;;;;;;;;;;5012813;28;20056;-38
2023/03/03 03:08:16;;;;;;;3.75;2.95;;;;;;;;;;5012856;28;20050;-35
2023/03/03 03:10:43;;;;;;;4.10;3.42;;;;;;;;;;5012755;28;20056;-35
2023/03/03 03:13:10;;;;;;;4.43;3.10;;;;;;;;;;5012573;28;20054;-35
2023/03/03 03:15:38;;;;;;;3.53;2.78;;;;;;;;;;5012699;28;20483;-35
2023/03/03 03:18:06;;;;;;;3.70;3.13;;;17.20;49.20;;;;;;5012577;28;20060;-33
2023/03/03 03:20:36;;;;;;;3.20;2.78;;;;;;;;;;5012742;28;20065;-36
2023/03/03 03:23:03;;;;;;;3.50;2.92;;;;;;;;;;5012215;28;20046;-36
2023/03/03 03:25:30;;;;;;;3.75;2.78;;;;;;;;;;5012627;28;20045;-34
2023/03/03 03:27:57;;;;;;;4.18;3.10;;;;;;;;;;5012594;28;20053;-33
2023/03/03 03:30:24;;;;;;;3.67;2.80;;;16.00;78.20;;;;;;5012323;28;20418;-38
2023/03/03 03:32:51;;;;;;;3.67;2.78;;;;;;;;;;5012141;28;20046;-36
2023/03/03 03:35:19;;;;;;;3.90;2.80;;;;;;;;;;5012707;28;20060;-33
2023/03/03 03:37:46;;;;;;;3.65;2.72;;;;;;;;;;5011967;28;20050;-38
2023/03/03 03:40:13;;;;;;;3.50;2.80;;;;;;;;;;5012330;28;20057;-34
2023/03/03 03:42:40;;;;;;;3.83;2.75;;;;;;;;;;5012166;28;20050;-37
2023/03/03 03:45:08;;;;;;;3.95;3.00;;;17.40;48.00;;;;;;5012051;28;20129;-35
2023/03/03 03:47:35;;;;;;;3.45;2.67;;;;;;;;;;5012534;28;20049;-35
2023/03/03 03:50:02;;;;;;;3.90;2.97;;;;;;;;;;5012132;28;20045;-36
2023/03/03 03:52:30;;;;;;;2.85;2.40;;;;;;;;;;5011944;28;20081;-36
2023/03/03 03:54:57;;;;;;;3.80;2.80;;;;;;;;;;5012100;28;20076;-36
2023/03/03 03:57:24;;;;;;;4.05;2.65;;;;;;;;;;5012165;28;20148;-34
2023/03/03 03:59:51;;;;;;;3.30;2.72;;;;;;;;;;5012144;28;20050;-36
2023/03/03 04:02:19;;;;;;;4.30;2.88;;;;;;;;;;5012055;28;20050;-36
2023/03/03 04:04:46;;;;;;;4.07;3.13;;;;;;;;;;5011854;28;20711;-36
2023/03/03 04:07:13;;;;;;;3.47;2.70;;;;;;;;;;5012693;28;20494;-35
2023/03/03 04:09:41;;;;;;;3.35;2.58;;;17.40;49.00;;;;;;5016277;28;20046;-37
2023/03/03 04:12:08;;;;;;;3.55;2.63;;;;;;;;;;5015979;28;20111;-35
2023/03/03 04:14:35;;;;;;;4.78;3.38;;;;;;;;;;5015779;28;20809;-35
2023/03/03 04:17:02;;;;;;;3.38;2.65;;;;;;;;;;5015973;28;20066;-35
2023/03/03 04:19:29;;;;;;;2.90;2.50;;;17.20;76.10;;;;;;5016146;28;20060;-34
2023/03/03 04:21:56;;;;;;;4.57;3.17;;;;;;;;;;5015810;28;20042;-38
2023/03/03 04:24:23;;;;;;;3.90;3.13;;;;;;;;;;5015265;28;20049;-34
2023/03/03 04:26:51;;;;;;;5.78;3.10;;;17.60;47.50;;;;;;5015930;28;20056;-38
2023/03/03 04:29:18;;;;;;;3.50;2.85;;;;;;;;;;5015892;28;20080;-34
2023/03/03 04:31:45;;;;;;;3.88;2.92;;;;;;;;;;5015917;28;20407;-35
2023/03/03 04:34:12;;;;;;;3.72;2.83;;;;;;;;;;5015259;28;20499;-36
2023/03/03 04:36:39;;;;;;;3.53;2.67;;;;;;;;;;5015148;28;20057;-35
2023/03/03 04:39:06;;;;;;;3.40;2.83;;;;;;;;;;5015624;28;20056;-35
2023/03/03 04:41:34;;;;;;;3.63;2.90;;;;;;;;;;5015547;28;20050;-32
2023/03/03 04:44:02;;;;;;;3.92;2.60;;;;;;;;;;5015282;28;20046;-38
2023/03/03 04:46:29;;;;;;;3.75;3.13;;;;;;;;;;5015590;28;20050;-35
2023/03/03 04:48:56;;;;;;;4.07;2.63;;;;;;;;;;5015475;28;20060;-36
2023/03/03 04:51:23;;;;;;;4.97;2.63;;;;;;;;;;5015139;28;20053;-35
2023/03/03 04:53:50;;;;;;;4.13;2.80;;;;;;;;;;5015164;28;20065;-34
2023/03/03 04:56:17;;;;;;;3.58;2.80;;;;;;;;;;5015000;28;20056;-36
2023/03/03 04:58:44;;;;;;;3.15;2.60;;;;;;;;;;5015442;28;20050;-35
2023/03/03 05:01:14;;;;;;;3.08;2.55;;;;;;;;;;5015325;28;20050;-35
2023/03/03 05:03:41;;;;;;;3.50;2.70;;;;;;;;;;5014896;28;20515;-36
2023/03/03 05:06:08;;;;;;;3.20;2.40;;;;;;;;;;5014713;28;20586;-32
2023/03/03 05:08:35;;;;;;;3.63;2.75;;;;;;;;;;5014949;28;20411;-36
2023/03/03 05:11:02;;;;;;;2.83;2.47;;;;;;;;;;5015161;28;20056;-33
2023/03/03 05:13:30;;;;;;;3.20;2.33;;;;;;;;;;5014810;28;20050;-33
2023/03/03 05:15:57;;;;;;;3.10;2.40;;;;;;;;;;5015206;28;20511;-37
2023/03/03 05:18:25;;;;;;;2.95;2.30;;;17.90;48.10;;;;;;5014580;28;20669;-37
2023/03/03 05:20:53;;;;;;;2.67;2.00;;;;;;;;;;5014732;28;20077;-33
2023/03/03 05:23:20;;;;;;;3.08;2.15;;;;;;;;;;5014973;28;20042;-37
2023/03/03 05:25:47;;;;;;;2.30;1.90;;;;;;;;;;5014800;28;20056;-34
2023/03/03 05:28:14;;;;;;;2.50;1.92;;;;;;;;;;5014599;28;20052;-37
2023/03/03 05:30:41;;;;;;;2.17;1.80;;;;;;;;;;5014759;28;20077;-35
2023/03/03 05:33:08;;;;;;;2.20;1.80;;;;;;;;;;5014381;28;20046;-36
2023/03/03 05:35:37;;;;;;;2.20;1.80;;;;;;;;;;5014314;28;20045;-35
2023/03/03 05:38:04;;;;;;;2.03;1.83;;;;;;;;;;5014279;28;20046;-37
2023/03/03 05:40:31;;;;;;;2.42;2.05;;;;;;;;;;5014343;28;20426;-37
2023/03/03 05:42:58;;;;;;;2.17;1.73;;;;;;;;;;5013969;28;20491;-39
2023/03/03 05:45:25;;;;;;;2.60;1.60;;;;;;;;;;5014343;28;20487;-36
2023/03/03 05:47:52;;;;;;;2.28;1.75;;;;;;;;;;5014224;28;20058;-38
2023/03/03 05:50:19;;;;;;;1.52;1.40;;;;;;;;;;5013737;28;20053;-38
2023/03/03 05:52:49;;;;;;;2.00;1.60;;;;;;;;;;5013887;28;20046;-36
2023/03/03 05:55:16;;;;;;;2.00;1.60;;;16.80;76.90;;;;;;5014446;28;20050;-36
2023/03/03 05:57:43;;;;;;;1.75;1.40;;;;;;;;;;5014096;28;20050;-34
2023/03/03 06:00:11;;;;;;;2.03;1.60;;;17.90;47.30;;;;;;5014300;28;20056;-33
2023/03/03 06:02:38;;;;;;;3.53;1.77;;;;;;;;;;5013491;28;20046;-34
2023/03/03 06:05:05;;;;;;;2.53;1.67;;;;;;;;;;5014086;28;20050;-36
2023/03/03 06:07:32;;;;;;;1.92;1.50;;;;;;;;;;5013763;28;20062;-35
2023/03/03 06:10:00;;;;;;;2.13;1.70;;;17.90;47.90;;;;;;5014132;28;20060;-37
2023/03/03 06:12:27;;;;;;;1.58;1.30;;;;;;;;;;5013687;28;20048;-36
2023/03/03 06:14:54;;;;;;;2.00;1.50;;;;;;;;;;5013780;28;20427;-34
2023/03/03 06:17:21;;;;;;;1.42;1.30;;;;;;;;;;5013628;28;20513;-37
2023/03/03 06:19:48;;;;;;;1.25;1.10;;;;;;;;;;5013894;28;20064;-36
2023/03/03 06:22:15;;;;;;;1.98;1.50;;;18.50;78.10;;;;;;5013531;28;20045;-37
2023/03/03 06:24:42;;;;;;;1.50;1.33;;;;;;;;;;5013368;28;20050;-36
2023/03/03 06:27:10;;;;;;;1.67;1.42;;;;;;;;;;5013502;28;20056;-35
2023/03/03 06:29:37;;;;;;;1.60;1.33;;;;;;;;;;5013182;28;20050;-36
2023/03/03 06:32:05;;;;;;;1.80;1.50;;;;;;;;;;5013245;28;20050;-38
2023/03/03 06:34:32;;;;;;;1.85;1.50;;;;;;;;;;5013090;28;20513;-34
2023/03/03 06:36:59;;;;;;;2.13;1.50;;;;;;;;;;5012868;28;20054;-35
2023/03/03 06:39:26;;;;;;;1.45;1.30;;;;;;;;;;5013258;28;20050;-35
2023/03/03 06:41:53;;;;;;;1.40;1.30;;;;;;;;;;5013430;28;20052;-35
2023/03/03 06:44:21;;;;;;;1.90;1.45;;;18.10;47.80;;;;;;5013063;28;20064;-35
2023/03/03 06:46:48;;;;;;;1.48;1.38;;;;;;;;;;5013443;28;20061;-38
2023/03/03 06:49:16;;;;;;;1.50;1.30;;;;;;;;;;5013411;28;20058;-34
2023/03/03 06:51:45;;;;;;;1.83;1.50;;;;;;;;;;5012790;28;20054;-36
2023/03/03 06:54:12;;;;;;;1.30;1.20;;;;;;;;;;5013050;28;20454;-36
2023/03/03 06:56:39;;;;;;;1.77;1.52;;;;;;;;;;5013180;28;20108;-39
2023/03/03 06:59:10;;;;;;;1.60;1.40;;;18.20;47.70;;;;;;5012986;28;20511;-37
2023/03/03 07:01:38;;;;;;;1.50;1.20;;;18.10;47.80;;;;;;5012830;28;20521;-35
2023/03/03 07:04:10;;;;;;;1.40;1.30;;;18.10;45.40;;;;;;5012822;28;20054;-36
2023/03/03 07:06:37;;;;;;;1.20;1.10;;;;;;;;;;5012879;28;20482;-36
2023/03/03 07:09:08;;;;;;;1.73;1.48;;;;;;;;;;5012610;28;20518;-35
2023/03/03 07:11:38;;;;;;;1.30;1.15;;;;;;;;;;5012737;28;20054;-36
2023/03/03 07:14:06;;;;;;;1.63;1.40;;;;;;;;;;5012800;28;20056;-39
2023/03/03 07:16:33;;;;;;;1.63;1.30;;;;;;;;;;5012710;28;20439;-34
2023/03/03 07:19:02;;;;;;;1.90;1.60;;;;;;;;;;5012770;28;20530;-36
2023/03/03 07:21:31;;;;;;;1.55;1.30;;;18.20;47.60;;;;;;5012375;28;20085;-35
2023/03/03 07:23:58;;;;;;;1.20;1.10;;;;;;;;;;5012055;28;20057;-34
2023/03/03 07:26:29;;;;;;;2.03;1.30;;;;;;;;;;5012572;28;20046;-35
2023/03/03 07:28:57;;;;;;;2.00;1.33;;;18.10;46.10;;;;;;5012606;28;20712;-35
2023/03/03 07:31:29;;;;;;;1.50;1.30;;;;;;;;;;5012560;28;20054;-35
2023/03/03 07:33:57;;;;;;;1.60;1.30;;;;;;;;;;5012235;28;20042;-32
2023/03/03 07:36:27;;;;;;;1.27;1.13;;;;;;;;;;5011524;28;20050;-35
2023/03/03 07:38:54;;;;;;;1.45;1.30;;;;;;;;;;5004810;28;20046;-37
2023/03/03 07:41:22;;;;;;;1.63;1.25;;;;;;;;;;5009725;28;20049;-34
2023/03/03 07:43:53;;;;;;;1.48;1.27;;;;;;;;;;5000041;28;20054;-33
2023/03/03 07:46:27;;;;;;;1.20;1.10;;;;;;;;;;4992831;28;20133;-36
2023/03/03 07:48:55;;;;;;;1.65;1.08;;;;;;;;;;4992364;28;20137;-38
2023/03/03 07:51:24;;;;;;;1.25;1.10;;;18.10;46.70;;;;;;5005815;28;20056;-35
2023/03/03 07:53:52;;;;;;;1.23;1.00;;;18.30;47.20;;;;;;5011973;28;20045;-35
2023/03/03 07:56:26;;;;;;;2.63;1.00;;;18.30;47.70;;;;;;5012395;28;20060;-37
2023/03/03 07:58:54;;;;;;;0.93;0.82;;;;;;;;;;5011976;28;20136;-35
2023/03/03 08:01:29;;;;;;;1.00;0.90;;;;;;;;;;5012221;28;20049;-35
2023/03/03 08:03:56;;;;;;;1.00;0.90;;;;;;;;;;5012011;28;20124;-36
2023/03/03 08:06:51;;;;;;;0.95;0.90;;;18.50;47.60;;;;;;5012131;28;20125;-39
2023/03/03 08:09:31;;;;;;;1.10;1.00;;;18.50;47.40;;;;;;4999043;28;20132;-34
2023/03/03 08:11:58;;;;;;;1.00;0.90;;;;;;;;;;5011934;28;20064;-36
2023/03/03 08:14:26;;;;;;;2.65;1.00;;;;;;;;;;5012069;28;20054;-39
2023/03/03 08:16:53;;;;;;;0.88;0.85;;;;;;;;;;5011993;28;20050;-35
2023/03/03 08:19:20;;;;;;;1.00;0.90;;;;;;;;;;5011933;28;20052;-36
2023/03/03 08:21:47;;;;;;;1.38;1.00;;;;;;;;;;5011808;28;20046;-36
2023/03/03 08:24:14;;;;;;;1.52;0.80;;;;;;;;;;5011391;28;20072;-36
2023/03/03 08:26:42;;;;;;;0.93;0.80;;;19.10;45.60;;;;;;5011946;28;20049;-34
2023/03/03 08:29:10;;;;;;;0.70;0.70;;;;;;;;;;5012004;28;20052;-35
2023/03/03 08:31:37;;;;;;;0.80;0.80;;;;;;;;;;5012001;28;20458;-38
2023/03/03 08:34:04;;;;;;;0.95;0.70;;;;;;;;;;5008083;28;20054;-36
2023/03/03 08:36:32;;;;;;;1.17;0.80;;;;;;;;;;5003828;28;20492;-35
2023/03/03 08:38:59;;;;;;;1.17;0.90;;;;;;;;;;5004032;28;20042;-33
2023/03/03 08:41:26;;;;;;;0.75;0.75;;;;;;;;;;5012012;28;20052;-34
2023/03/03 08:43:54;;;;;;;1.92;0.65;;;;;;;;;;5011290;28;20048;-33
2023/03/03 08:46:21;;;;;;;1.25;0.90;;;;;;;;;;5011704;28;20518;-36
2023/03/03 08:48:49;;;;;;;0.93;0.80;;;;;;;;;;5011524;28;20050;-36
2023/03/03 08:51:16;;;;;;;0.80;0.80;;;;;;;;;;5011794;28;20392;-39
2023/03/03 08:53:51;;;;;;;0.80;0.80;;;19.50;76.40;;;;;;5012971;28;20046;-37
2023/03/03 08:56:19;;;;;;;0.73;0.73;;;;;;;;;;5015630;28;20072;-35
2023/03/03 08:58:46;;;;;;;1.08;0.70;;;;;;;;;;5015055;28;20050;-35
2023/03/03 09:01:15;;;;;;;0.80;0.80;;;;;;;;;;5005605;28;20078;-35
2023/03/03 09:03:43;;;;;;;0.80;0.80;;;;;;;;;;5013850;28;20398;-36
2023/03/03 09:06:10;;;;;;;1.00;0.90;;;;;;;;;;5014795;28;20056;-35
2023/03/03 09:08:37;;;;;;;0.73;0.73;;;;;;;;;;5014715;28;20050;-36
2023/03/03 09:11:04;;;;;;;2.35;0.90;;;;;;;;;;5012251;28;20056;-34
2023/03/03 09:13:31;;;;;;;1.00;0.80;;;;;;;;;;5014229;28;20046;-38
2023/03/03 09:15:58;;;;;;;0.80;0.80;;;;;;;;;;5014561;28;20153;-37
2023/03/03 09:18:30;;;;;;;0.70;0.70;;;;;;;;;;5014682;28;20414;-35
2023/03/03 09:20:57;;;;;;;0.80;0.80;;;;;;;;;;5014582;28;20434;-32
2023/03/03 09:23:34;;;;;;;1.27;1.00;;;;;;;;;;5013809;28;20491;-34
2023/03/03 09:26:14;;;;;;;0.93;0.80;;;;;;;;;;5014382;28;20511;-35
2023/03/03 09:28:41;;;;;;;1.35;0.90;;;;;;;;;;5014895;28;20056;-36
2023/03/03 09:31:16;;;;;;;1.00;0.90;;;;;;;;;;5014445;28;20049;-33
2023/03/03 09:33:44;;;;;;;2.53;0.95;;;;;;;;;;5014657;28;20045;-37
2023/03/03 09:36:18;;;;;;;1.08;0.90;;;20.20;45.10;;;;;;5014246;28;20042;-39
2023/03/03 09:38:45;;;;;;;0.95;0.85;;;;;;;;;;5013819;28;20513;-34
2023/03/03 09:41:25;;;;;;;1.20;1.10;;;;;;;;;;5012456;28;20093;-38
2023/03/03 09:43:56;;;;;;;0.88;0.88;;;;;;;;;;5011984;28;20050;-38
2023/03/03 09:46:25;;;;;;;0.70;0.70;;;;;;;;;;5013399;28;20046;-35
2023/03/03 09:48:58;;;;;;;1.60;1.00;;;20.50;44.70;;;;;;5011697;28;20410;-38
2023/03/03 09:51:40;;;;;;;0.68;0.68;;;20.50;44.60;;;;;;5014140;28;20061;-35
2023/03/03 09:54:11;;;;;;;0.90;0.80;;;;;;;;;;5013341;28;20491;-36
2023/03/03 09:56:41;;;;;;;1.33;1.00;;;20.50;44.50;;;;;;5011794;28;20050;-36
2023/03/03 09:59:19;;;;;;;1.50;1.00;;;20.60;44.60;;;;;;5013695;28;20569;-34
2023/03/03 10:01:49;;;;;;;0.85;0.85;;;;;;;;;;5012128;28;20046;-33
2023/03/03 10:04:20;;;;;;;0.80;0.80;;;;;;;;;;5010940;28;20042;-38
2023/03/03 10:06:48;;;;;;;1.70;1.15;;;20.70;44.40;;;;;;5013362;28;20049;-32
2023/03/03 10:09:32;;;;;;;2.05;0.90;;;;;;;;;;5013625;28;20050;-37
2023/03/03 10:11:59;;;;;;;1.10;1.00;;;;;;;;;;5013435;28;20056;-37
2023/03/03 10:14:34;;;;;;;1.38;1.00;;;20.70;43.40;;;;;;5013145;28;20042;-34
2023/03/03 10:17:20;;;;;;;1.20;1.00;;;20.80;44.30;;;;;;5011277;28;20050;-32
2023/03/03 10:19:49;;;;;;;1.27;0.88;;;;;;;;;;5012285;28;20050;-34
2023/03/03 10:22:19;;;;;;;1.02;0.90;;;;;;;;;;5012711;28;20073;-36
2023/03/03 10:24:47;;;;;;;1.00;0.90;;;;;;;;;;5012883;28;20145;-35
2023/03/03 10:27:20;;;;;;;1.10;1.00;;;;;;;;;;5011964;28;20414;-36
2023/03/03 10:29:53;;;;;;;3.25;1.00;;;20.90;44.00;;;;;;5013334;28;20052;-35
2023/03/03 10:32:48;;;;;;;1.13;1.02;;;20.90;44.00;;;;;;5010249;28;20057;-34
2023/03/03 10:35:31;;;;;;;1.10;1.00;;;21.00;44.20;;;;;;5011049;28;20060;-36
2023/03/03 10:38:04;;;;;;;0.88;0.80;;;;;;;;;;5011268;28;20468;-36
2023/03/03 10:40:32;;;;;;;2.85;1.20;;;21.00;43.80;;;;;;5008017;28;20050;-35
2023/03/03 10:43:16;;;;;;;1.42;1.00;;;20.90;43.80;;;;;;5010155;28;20534;-36
2023/03/03 10:45:46;;;;;;;1.88;1.20;;;;;;;;;;5012658;28;20046;-35
2023/03/03 10:48:27;;;;;;;1.92;1.08;;;21.10;43.80;;;;;;5012132;28;20045;-38
2023/03/03 10:50:58;;;;;;;1.50;1.10;;;21.10;43.40;;;;;;5012850;28;20473;-37
2023/03/03 10:53:29;;;;;;;2.03;1.10;;;21.10;43.80;;;;;;5011241;28;20046;-37
2023/03/03 10:56:08;;;;;;;1.60;1.10;;;21.20;42.50;;;;;;5012448;28;20053;-33
2023/03/03 10:58:50;;;;;;;2.05;1.15;;;21.00;42.80;;;;;;5012603;28;20049;-36
2023/03/03 11:01:21;;;;;;;1.42;1.10;;;;;;;;;;5000146;28;20408;-32
2023/03/03 11:04:27;;;;;;;1.38;0.98;;;21.30;43.90;;;;;;4996375;28;20073;-37
2023/03/03 11:06:57;;;;;;;2.05;1.15;;;;;;;;;;4993065;28;20510;-38
2023/03/03 11:09:31;;;;;;;2.70;1.23;;;;;;;;;;4996110;28;20073;-36
2023/03/03 11:11:59;;;;;;;1.65;1.10;;;;;;;;;;5007207;28;20049;-36
2023/03/03 11:14:28;;;;;;;1.63;1.15;;;;;;;;;;5011690;28;20046;-35
2023/03/03 11:16:57;;;;;;;1.67;1.10;;;;;;;;;;5012162;28;20050;-39
2023/03/03 11:19:41;;;;;;;2.00;1.23;;;21.10;43.90;;;;;;5009307;28;20054;-36
2023/03/03 11:22:16;;;;;;;2.15;1.23;;;21.10;43.80;;;;;;5012795;28;20054;-32
2023/03/03 11:24:49;;;;;;;2.25;1.50;;;21.10;43.90;;;;;;5012564;28;20045;-37
2023/03/03 11:27:20;;;;;;;2.25;1.17;;;;;;;;;;5012466;28;20526;-37
2023/03/03 11:29:53;;;;;;;2.95;1.33;;;21.00;43.90;;;;;;5012527;28;20133;-34
2023/03/03 11:32:21;;;;;;;1.95;1.30;;;;;;;;;;5012488;28;20060;-35
2023/03/03 11:34:54;;;;;;;2.50;1.20;;;;;;;;;;5006404;28;20126;-34
2023/03/03 11:37:24;;;;;;;3.28;1.27;;;;;;;;;;5003233;28;20046;-36
2023/03/03 11:39:51;;;;;;;1.73;1.20;;;;;;;;;;5002735;28;20418;-35
2023/03/03 11:42:20;;;;;;;1.88;1.13;;;;;;;;;;5007329;28;20046;-33
2023/03/03 11:44:48;;;;;;;6.90;1.58;;;;;;;;;;5005849;28;20044;-38
2023/03/03 11:47:18;;;;;;;1.63;1.10;;;20.70;44.80;;;;;;5003801;28;20047;-38
2023/03/03 11:49:48;;;;;;;1.60;1.20;;;20.70;44.90;;;;;;5001528;28;20050;-36
2023/03/03 11:52:20;;;;;;;2.65;1.30;;;;;;;;;;5004599;28;20054;-36
2023/03/03 11:54:49;;;;;;;1.80;1.30;;;;;;;;;;5008415;28;20509;-37
2023/03/03 11:57:19;;;;;;;2.80;1.20;;;;;;;;;;5007325;28;20495;-35
2023/03/03 11:59:48;;;;;;;1.83;1.15;;;;;;;;;;5009905;28;20045;-35
2023/03/03 12:02:30;;;;;;;2.58;1.30;;;;;;;;;;5008520;28;20042;-35
2023/03/03 12:04:59;;;;;;;1.63;1.15;;;;;;;;;;5011424;28;20052;-35
2023/03/03 12:07:30;;;;;;;2.53;1.30;;;20.40;45.10;;;;;;5004989;28;20054;-36
2023/03/03 12:10:03;;;;;;;3.05;1.33;;;20.40;43.20;;;;;;5006003;28;20058;-33
2023/03/03 12:12:32;;;;;;;3.17;1.50;;;20.40;44.00;;;;;;5010260;28;20056;-36
2023/03/03 12:15:07;;;;;;;2.00;1.20;;;20.20;45.20;;;;;;5008382;28;20052;-37
2023/03/03 12:17:53;;;;;;;2.10;1.33;;;;;;;;;;5006098;28;20042;-36
2023/03/03 12:20:23;;;;;;;2.28;1.30;;;20.20;45.40;;;;;;5004148;28;20468;-35
2023/03/03 12:22:56;;;;;;;3.22;1.38;;;20.10;45.40;;;;;;5009925;28;20057;-39
2023/03/03 12:25:25;;;;;;;5.22;1.40;;;;;;;;;;5008124;28;20052;-34
2023/03/03 12:27:56;;;;;;;2.97;1.40;;;20.10;45.70;;;;;;5008267;28;20488;-37
2023/03/03 12:30:34;;;;;;;2.88;1.35;;;;;;;;;;5015520;28;20046;-35
2023/03/03 12:33:04;;;;;;;3.35;1.33;;;;;;;;;;5014009;28;20125;-38
2023/03/03 12:35:34;;;;;;;3.40;1.60;;;20.00;45.90;;;;;;5012251;28;20056;-36
2023/03/03 12:38:03;;;;;;;3.35;1.50;;;19.90;45.80;;;;;;5014431;28;20042;-36
2023/03/03 12:40:33;;;;;;;3.50;1.75;;;20.00;45.40;;;;;;5015476;28;20063;-36
2023/03/03 12:43:09;;;;;;;2.88;1.30;;;19.90;46.30;;;;;;5014815;28;20045;-32
2023/03/03 12:45:38;;;;;;;2.67;1.63;;;;;;;;;;5013022;28;20521;-33
2023/03/03 12:48:08;;;;;;;1.85;1.20;;;19.90;46.60;;;;;;5015378;28;20054;-35
2023/03/03 12:50:40;;;;;;;3.53;1.40;;;19.70;46.70;;;;;;5015620;28;20129;-36
2023/03/03 12:53:12;;;;;;;6.80;1.40;;;19.60;47.00;;;;;;5013250;28;20136;-34
2023/03/03 12:55:47;;;;;;;3.63;1.40;;;19.70;45.20;;;;;;5006786;28;20048;-37
2023/03/03 12:58:16;;;;;;;2.95;1.50;;;;;;;;;;5009715;28;20054;-39
2023/03/03 13:00:48;;;;;;;2.85;1.30;;;19.60;47.40;;;;;;4998277;28;20530;-35
2023/03/03 13:03:20;;;;;;;4.65;1.58;;;19.60;47.40;;;;;;4995410;28;20050;-36
2023/03/03 13:05:51;;;;;;;3.10;1.52;;;19.60;47.60;;;;;;4995550;28;20054;-34
2023/03/03 13:08:30;;;;;;;5.38;1.50;;;19.50;47.90;;;;;;4995730;28;20125;-36
2023/03/03 13:10:59;;;;;;;4.97;1.48;;;;;;;;;;5000677;28;20053;-35
2023/03/03 13:13:27;;;;;;;3.38;1.50;;;;;;;;;;5012938;28;20100;-38
2023/03/03 13:15:57;;;;;;;7.75;1.67;;;;;;;;;;5011668;28;20064;-35
2023/03/03 13:18:32;;;;;;;2.72;1.55;;;19.40;47.90;;;;;;4997924;28;20407;-36
2023/03/03 13:21:01;;;;;;;5.72;1.30;;;19.30;47.80;;;;;;4997829;28;20061;-34
2023/03/03 13:23:37;;;;;;;2.60;1.30;;;19.30;47.90;;;;;;5014506;28;20129;-36
2023/03/03 13:26:07;;;;;;;4.35;1.55;;;19.30;48.10;;;;;;5014586;28;20054;-35
2023/03/03 13:28:35;;;;;;;2.60;1.60;;;;;;;;;;5014348;28;20054;-38
2023/03/03 13:31:03;;;;;;;2.53;1.40;;;;;;;;;;5014665;28;20050;-36
2023/03/03 13:33:31;;;;;;;2.78;1.05;;;;;;;;;;5013780;28;20050;-36
2023/03/03 13:35:59;;;;;;;2.80;1.20;;;;;;;;;;5014066;28;20046;-35
2023/03/03 13:38:26;;;;;;;3.13;1.30;;;;;;;;;;5014513;28;20056;-33
2023/03/03 13:40:57;;;;;;;3.33;1.27;;;19.20;48.10;;;;;;5013361;28;20418;-37
2023/03/03 13:43:26;;;;;;;4.43;1.30;;;;;;;;;;5013841;28;20460;-36
2023/03/03 13:46:04;;;;;;;2.30;1.20;;;19.30;48.10;;;;;;5014413;28;20042;-39
2023/03/03 13:48:35;;;;;;;3.45;1.35;;;;;;;;;;5008639;28;20054;-36
2023/03/03 13:51:04;;;;;;;2.08;1.30;;;19.20;48.10;;;;;;5014328;28;20064;-35
2023/03/03 13:53:33;;;;;;;2.97;1.27;;;;;;;;;;5013987;28;20045;-36
2023/03/03 13:56:04;;;;;;;1.83;1.00;;;19.20;46.00;;;;;;5013930;28;20484;-36
2023/03/03 13:58:35;;;;;;;3.58;1.20;;;;;;;;;;5014419;28;20418;-38
2023/03/03 14:01:04;;;;;;;1.67;1.00;;;;;;;;;;5014056;28;20060;-33
2023/03/03 14:03:52;;;;;;;2.28;1.00;;;19.40;47.90;;;;;;5006077;28;20415;-37
2023/03/03 14:06:19;;;;;;;2.33;1.00;;;;;;;;;;5005448;28;20057;-36
2023/03/03 14:09:00;;;;;;;1.77;0.90;;;19.40;47.60;;;;;;5006170;28;20053;-36
2023/03/03 14:11:29;;;;;;;1.83;0.90;;;;;;;;;;5006438;28;20149;-35
2023/03/03 14:14:03;;;;;;;1.80;1.02;;;19.50;46.60;;;;;;5010437;28;20724;-39
2023/03/03 14:16:37;;;;;;;1.13;0.75;;;;;;;;;;5012665;28;20046;-35
2023/03/03 14:19:07;;;;;;;1.95;1.00;;;19.50;47.60;;;;;;5013425;28;20046;-39
2023/03/03 14:21:35;;;;;;;2.63;1.20;;;19.50;46.70;;;;;;5010902;28;20050;-36